Stormwatcher's Retreat Logo




                  Temp     Hi    Low   Out    Dew  Wind  Wind   Wind    Hi    Hi   Wind   Heat    THW   THSW                Rain  Solar   Solar Hi Solar   UV    UV    Hi     Heat    Cool    In     In    In     In     In   In Air          Wind  Wind    ISS   Arc.
  Date    Time     Out   Temp   Temp   Hum    Pt. Speed   Dir    Run Speed   Dir  Chill  Index  Index  Index   Bar    Rain  Rate   Rad.  Energy    Rad.  Index  Dose   UV     D-D     D-D    Temp   Hum    Dew   Heat    EMC Density     ET   Samp   Tx   Recept  Int.
------------------------------------------------------------------------------------------------------------------------------------------------------------------------------------------------------------------------------------------------------------------------
 2/23/18 12:10a   32.5   32.5   32.5    83   27.9   2.0   ESE   0.33   6.0   ESE   31.5   32.3   31.3   27.3  30.477  0.00  0.00     0     0.00      0     0.0  0.00   0.0   0.226   0.000   67.3    40   42.1   64.8   7.80  .0760    0.000   210    5    100.0   10 
 2/23/18 12:20a   32.3   32.5   32.2    84   28.0   2.0   ESE   0.33   6.0   ESE   31.3   32.1   31.1   27.1  30.479  0.00  0.00     0     0.00      0     0.0  0.00   0.0   0.227   0.000   67.3    40   42.1   64.8   7.80  .0760    0.000   212    5    100.0   10 
 2/23/18 12:30a   32.0   32.3   32.0    84   27.7   1.0   ESE   0.17   3.0   ESE   32.0   31.8   31.8   27.8  30.483  0.00  0.00     0     0.00      0     0.0  0.00   0.0   0.229   0.000   67.1    40   42.0   64.6   7.81  .0761    0.000   211    5    100.0   10 
 2/23/18 12:40a   31.9   32.0   31.9    84   27.6   2.0   ESE   0.33   4.0   ESE   30.9   31.7   30.7   26.7  30.485  0.00  0.00     0     0.00      0     0.0  0.00   0.0   0.230   0.000   67.0    40   41.9   64.5   7.81  .0761    0.000   210    5    100.0   10 
 2/23/18 12:50a   31.7   31.9   31.7    84   27.4   1.0   ESE   0.17   4.0     E   31.7   31.5   31.5   27.5  30.485  0.00  0.00     0     0.00      0     0.0  0.00   0.0   0.231   0.000   66.9    40   41.8   64.4   7.81  .0761    0.000   209    5    100.0   10 
 2/23/18  1:00a   31.8   31.8   31.6    85   27.8   2.0   ESE   0.33   6.0   ESE   30.7   31.6   30.5   26.5  30.487  0.00  0.00     0     0.00      0     0.0  0.00   0.0   0.231   0.000   66.8    40   41.7   64.3   7.81  .0761    0.000   212    5    100.0   10 
 2/23/18  1:10a   31.9   32.0   31.8    85   27.9   2.0   ESE   0.33   6.0     E   30.9   31.7   30.7   26.7  30.489  0.00  0.00     0     0.00      0     0.0  0.00   0.0   0.230   0.000   66.8    40   41.7   64.3   7.81  .0761    0.000   211    5    100.0   10 
 2/23/18  1:20a   31.9   31.9   31.9    85   27.9   2.0   ESE   0.33   4.0   ESE   30.9   31.7   30.7   26.7  30.488  0.00  0.00     0     0.00      0     0.0  0.00   0.0   0.230   0.000   66.7    40   41.6   64.2   7.82  .0762    0.000   210    5    100.0   10 
 2/23/18  1:30a   31.9   31.9   31.9    85   27.9   2.0   ESE   0.33   6.0   ESE   30.9   31.7   30.7   26.7  30.488  0.00  0.00     0     0.00      0     0.0  0.00   0.0   0.230   0.000   66.6    40   41.5   64.1   7.82  .0762    0.000   212    5    100.0   10 
 2/23/18  1:40a   31.9   31.9   31.8    85   27.9   2.0   ESE   0.33   8.0   ESE   30.9   31.7   30.7   26.7  30.492  0.00  0.00     0     0.00      0     0.0  0.00   0.0   0.230   0.000   66.6    40   41.5   64.1   7.82  .0762    0.000   212    5    100.0   10 
 2/23/18  1:50a   31.7   31.9   31.7    86   28.0   3.0   ESE   0.50  10.0     E   29.0   31.5   28.8   24.8  30.493  0.00  0.00     0     0.00      0     0.0  0.00   0.0   0.231   0.000   66.6    40   41.5   64.1   7.82  .0762    0.000   211    5    100.0   10 
 2/23/18  2:00a   31.5   31.7   31.5    86   27.8   3.0   ESE   0.50   7.0   ESE   28.8   31.3   28.6   24.6  30.495  0.00  0.00     0     0.00      0     0.0  0.00   0.0   0.233   0.000   66.5    40   41.4   64.0   7.82  .0762    0.000   211    5    100.0   10 
 2/23/18  2:10a   31.5   31.6   31.5    86   27.8   3.0   ESE   0.50   7.0     E   28.8   31.3   28.6   24.6  30.495  0.00  0.00     0     0.00      0     0.0  0.00   0.0   0.233   0.000   66.4    40   41.3   63.8   7.82  .0762    0.000   214    5    100.0   10 
 2/23/18  2:20a   31.4   31.5   31.4    86   27.7   3.0   ESE   0.50   8.0     E   28.6   31.2   28.4   24.4  30.495  0.00  0.00     0     0.00      0     0.0  0.00   0.0   0.233   0.000   66.3    40   41.2   63.7   7.82  .0762    0.000   210    5    100.0   10 
 2/23/18  2:30a   31.5   31.5   31.4    86   27.8   2.0   ESE   0.33   6.0     E   30.4   31.3   30.2   26.2  30.499  0.00  0.00     0     0.00      0     0.0  0.00   0.0   0.233   0.000   66.2    40   41.2   63.6   7.83  .0763    0.000   210    5    100.0   10 
 2/23/18  2:40a   31.5   31.5   31.4    86   27.8   2.0   ESE   0.33   7.0   ESE   30.4   31.3   30.2   26.2  30.495  0.00  0.00     0     0.00      0     0.0  0.00   0.0   0.233   0.000   66.2    40   41.2   63.6   7.83  .0763    0.000   213    5    100.0   10 
 2/23/18  2:50a   31.5   31.5   31.4    86   27.8   2.0   ESE   0.33   6.0     E   30.4   31.3   30.2   26.2  30.495  0.00  0.00     0     0.00      0     0.0  0.00   0.0   0.233   0.000   66.1    40   41.1   63.5   7.83  .0763    0.000   211    5    100.0   10 
 2/23/18  3:00a   31.5   31.5   31.4    86   27.8   2.0   ESE   0.33   6.0   ESE   30.4   31.3   30.2   26.2  30.496  0.00  0.00     0     0.00      0     0.0  0.00   0.0   0.233   0.000   66.1    40   41.1   63.5   7.83  .0763    0.000   210    5    100.0   10 
 2/23/18  3:10a   31.6   31.6   31.4    85   27.6   3.0   ESE   0.50   8.0   ESE   28.9   31.4   28.7   24.7  30.496  0.00  0.00     0     0.00      0     0.0  0.00   0.0   0.232   0.000   66.0    40   41.0   63.4   7.83  .0763    0.000   213    5    100.0   10 
 2/23/18  3:20a   31.5   31.6   31.5    85   27.5   4.0   ESE   0.67  10.0   ESE   27.5   31.3   27.3   23.3  30.495  0.00  0.00     0     0.00      0     0.0  0.00   0.0   0.233   0.000   66.0    40   41.0   63.4   7.83  .0763    0.000   213    5    100.0   10 
 2/23/18  3:30a   31.3   31.5   31.3    86   27.6   4.0   ESE   0.67   9.0     E   27.3   31.1   27.1   23.1  30.495  0.00  0.00     0     0.00      0     0.0  0.00   0.0   0.234   0.000   66.0    40   41.0   63.4   7.83  .0763    0.000   207    5    100.0   10 
 2/23/18  3:40a   31.1   31.3   31.1    86   27.4   6.0   ESE   1.00  11.0    SE   25.2   30.9   25.0   21.0  30.493  0.00  0.00     0     0.00      0     0.0  0.00   0.0   0.235   0.000   65.9    40   40.9   63.3   7.83  .0763    0.000   214    5    100.0   10 
 2/23/18  3:50a   30.9   31.1   30.9    87   27.5   7.0     E   1.17  13.0     E   24.2   30.7   24.0   20.1  30.492  0.00  0.00     0     0.00      0     0.0  0.00   0.0   0.237   0.000   65.9    40   40.9   63.3   7.83  .0763    0.000   211    5    100.0   10 
 2/23/18  4:00a   30.9   30.9   30.8    87   27.5   5.0     E   0.83  12.0   ESE   25.8   30.7   25.6   21.6  30.488  0.00  0.00     0     0.00      0     0.0  0.00   0.0   0.237   0.000   65.9    40   40.9   63.3   7.83  .0763    0.000   213    5    100.0   10 
 2/23/18  4:10a   30.9   30.9   30.9    87   27.5   6.0     E   1.00  12.0     E   24.9   30.7   24.7   20.7  30.489  0.00  0.00     0     0.00      0     0.0  0.00   0.0   0.237   0.000   65.8    40   40.8   63.2   7.83  .0763    0.000   214    5    100.0   10 
 2/23/18  4:20a   30.8   30.9   30.8    87   27.4   5.0     E   0.83  10.0   ESE   25.7   30.6   25.5   21.5  30.491  0.00  0.00     0     0.00      0     0.0  0.00   0.0   0.238   0.000   65.7    40   40.7   63.1   7.84  .0763    0.000   211    5    100.0   10 
 2/23/18  4:30a   30.7   30.9   30.7    88   27.6   5.0     E   0.83  11.0   ESE   25.5   30.5   25.3   21.3  30.498  0.00  0.00     0     0.00      0     0.0  0.00   0.0   0.238   0.000   65.6    40   40.6   63.0   7.84  .0764    0.000   211    5    100.0   10 
 2/23/18  4:40a   30.6   30.7   30.6    87   27.2   5.0     E   0.83  10.0   ENE   25.4   30.4   25.2   21.2  30.497  0.00  0.00     0     0.00      0     0.0  0.00   0.0   0.239   0.000   65.5    40   40.5   62.9   7.84  .0764    0.000   211    5    100.0   10 
 2/23/18  4:50a   30.6   30.6   30.5    87   27.2   4.0   ESE   0.67   8.0     E   26.5   30.4   26.3   22.3  30.498  0.00  0.00     0     0.00      0     0.0  0.00   0.0   0.239   0.000   65.5    40   40.5   62.9   7.84  .0764    0.000   213    5    100.0   10 
 2/23/18  5:00a   30.6   30.7   30.6    87   27.2   5.0     E   0.83  12.0     E   25.4   30.4   25.2   21.2  30.503  0.00  0.00     0     0.00      0     0.0  0.00   0.0   0.239   0.000   65.4    40   40.4   62.8   7.84  .0764    0.000   210    5    100.0   10 
 2/23/18  5:10a   30.6   30.6   30.6    87   27.2   6.0     E   1.00  11.0   ENE   24.6   30.4   24.4   20.4  30.502  0.00  0.00     0     0.00      0     0.0  0.00   0.0   0.239   0.000   65.4    40   40.4   62.8   7.84  .0764    0.000   212    5    100.0   10 
 2/23/18  5:20a   30.7   30.7   30.6    87   27.3   5.0     E   0.83  11.0     E   25.5   30.5   25.3   21.3  30.502  0.00  0.00     0     0.00      0     0.0  0.00   0.0   0.238   0.000   65.3    40   40.3   62.7   7.84  .0764    0.000   212    5    100.0   10 
 2/23/18  5:30a   30.7   30.7   30.7    87   27.3   5.0     E   0.83  10.0     E   25.5   30.5   25.3   21.3  30.503  0.00  0.00     0     0.00      0     0.0  0.00   0.0   0.238   0.000   65.3    40   40.3   62.7   7.84  .0764    0.000   213    5    100.0   10 
 2/23/18  5:40a   30.7   30.7   30.6    87   27.3   5.0   ESE   0.83  10.0   ESE   25.5   30.5   25.3   21.3  30.502  0.00  0.00     0     0.00      0     0.0  0.00   0.0   0.238   0.000   65.3    40   40.3   62.7   7.84  .0764    0.000   214    5    100.0   10 
 2/23/18  5:50a   30.7   30.7   30.7    87   27.3   6.0     E   1.00  12.0   ENE   24.7   30.5   24.5   20.5  30.501  0.00  0.00     0     0.00      0     0.0  0.00   0.0   0.238   0.000   65.2    40   40.3   62.6   7.85  .0764    0.000   210    5    100.0   10 
 2/23/18  6:00a   30.5   30.7   30.5    87   27.1   5.0   ESE   0.83  15.0   ESE   25.3   30.3   25.1   21.1  30.500  0.00  0.00     0     0.00      0     0.0  0.00   0.0   0.240   0.000   65.2    40   40.3   62.6   7.85  .0764    0.000   213    5    100.0   10 
 2/23/18  6:10a   30.2   30.5   30.2    87   26.8   4.0   ESE   0.67  10.0     E   26.0   30.0   25.8   21.7  30.503  0.00  0.00     0     0.00      0     0.0  0.00   0.0   0.242   0.000   65.2    40   40.3   62.6   7.85  .0764    0.000   214    5    100.0   10 
 2/23/18  6:20a   30.2   30.2   30.2    87   26.8   4.0   ESE   0.67  11.0     E   26.0   30.0   25.8   21.7  30.503  0.00  0.00     0     0.00      0     0.0  0.00   0.0   0.242   0.000   65.2    40   40.3   62.6   7.85  .0764    0.000   212    5    100.0   10 
 2/23/18  6:30a   30.1   30.2   30.1    87   26.7   4.0   ESE   0.67  11.0   SSE   25.9   29.9   25.7   21.6  30.504  0.00  0.00     0     0.00      0     0.0  0.00   0.0   0.242   0.000   65.1    40   40.2   62.5   7.85  .0765    0.000   211    5    100.0   10 
 2/23/18  6:40a   30.0   30.1   30.0    87   26.6   4.0   ESE   0.67  12.0   ESE   25.8   29.8   25.6   21.5  30.509  0.00  0.00     0     0.00      0     0.0  0.00   0.0   0.243   0.000   65.1    40   40.2   62.5   7.85  .0765    0.000   213    5    100.0   10 
 2/23/18  6:50a   30.0   30.0   29.9    88   26.9   3.0   ESE   0.50   9.0   ESE   27.1   29.8   26.9   22.8  30.511  0.00  0.00     0     0.00      0     0.0  0.00   0.0   0.243   0.000   65.1    40   40.2   62.5   7.85  .0765    0.000   211    5    100.0   10 
 2/23/18  7:00a   29.8   29.9   29.8    88   26.7   4.0   ESE   0.67  10.0     E   25.5   29.6   25.3   21.3  30.510  0.00  0.00     1     0.01      5     0.0  0.00   0.0   0.244   0.000   65.2    40   40.3   62.6   7.85  .0765    0.000   211    5    100.0   10 
 2/23/18  7:10a   29.9   29.9   29.8    88   26.8   4.0   ESE   0.67   9.0   ESE   25.7   29.7   25.5   21.6  30.512  0.00  0.00     7     0.10     11     0.0  0.00   0.0   0.244   0.000   65.3    40   40.3   62.7   7.84  .0765    0.000   213    5    100.0   10 
 2/23/18  7:20a   29.8   29.9   29.8    88   26.7   4.0   ESE   0.67  10.0   ESE   25.5   29.6   25.3   21.5  30.515  0.00  0.00    13     0.19     16     0.0  0.00   0.0   0.244   0.000   65.4    40   40.4   62.8   7.84  .0764    0.000   209    5    100.0   10 
 2/23/18  7:30a   29.8   29.8   29.7    88   26.7   5.0   ESE   0.83  12.0   SSE   24.5   29.6   24.3   20.7  30.516  0.00  0.00    21     0.30     25     0.0  0.00   0.0   0.244   0.000   65.5    40   40.5   62.9   7.84  .0764    0.000   213    5    100.0   10 
 2/23/18  7:40a   29.8   29.8   29.7    88   26.7   5.0   ESE   0.83  11.0     E   24.5   29.6   24.3   20.8  30.517  0.00  0.00    26     0.37     28     0.0  0.00   0.0   0.244   0.000   65.7    40   40.7   63.1   7.84  .0764    0.000   213    5    100.0   10 
 2/23/18  7:50a   29.8   29.9   29.7    88   26.7   5.0   ESE   0.83  11.0     E   24.5   29.6   24.3   21.0  30.517  0.00  0.00    34     0.49     40     0.0  0.00   0.0   0.244   0.000   65.8    40   40.8   63.2   7.83  .0764    0.000   211    5    100.0   10 
 2/23/18  8:00a   30.1   30.1   29.8    88   27.0   5.0   ESE   0.83  11.0     E   24.8   29.9   24.6   21.6  30.518  0.00  0.00    50     0.72     58     0.0  0.00   0.0   0.242   0.000   66.0    40   41.0   63.4   7.83  .0764    0.001   212    5    100.0   10 
 2/23/18  8:10a   30.5   30.5   30.1    88   27.4   5.0   ESE   0.83  12.0     E   25.3   30.3   25.1   23.1  30.517  0.00  0.00    93     1.33    153     0.0  0.00   0.0   0.240   0.000   66.1    40   41.1   63.5   7.83  .0763    0.000   213    5    100.0   10 
 2/23/18  8:20a   30.9   30.9   30.5    88   27.8   4.0   ESE   0.67  12.0   ENE   26.8   30.7   26.6   30.0  30.524  0.00  0.00   164     2.35    178     0.0  0.00   0.0   0.237   0.000   66.2    40   41.2   63.6   7.83  .0763    0.000   213    5    100.0   10 
 2/23/18  8:30a   31.3   31.3   30.9    88   28.2   4.0     E   0.67  12.0    SE   27.3   31.1   27.1   30.8  30.524  0.00  0.00   174     2.49    181     0.0  0.00   0.0   0.234   0.000   66.4    40   41.3   63.8   7.82  .0763    0.000   211    5    100.0   10 
 2/23/18  8:40a   31.8   31.9   31.4    87   28.4   4.0   ESE   0.67  10.0     E   27.8   31.6   27.6   33.2  30.525  0.00  0.00   223     3.20    248     0.0  0.00   0.0   0.231   0.000   66.5    40   41.4   64.0   7.82  .0763    0.000   211    5    100.0   10 
 2/23/18  8:50a   32.3   32.3   31.8    87   28.9   5.0   ESE   0.83  12.0     E   27.4   32.1   27.2   33.2  30.521  0.00  0.00   239     3.43    258     0.0  0.00   0.0   0.227   0.000   66.6    40   41.5   64.1   7.82  .0763    0.000   209    5    100.0   10 
 2/23/18  9:00a   32.9   32.9   32.3    87   29.5   5.0   ESE   0.83  12.0   ESE   28.1   32.7   27.9   33.4  30.520  0.00  0.00   234     3.35    272     0.0  0.00   0.0   0.223   0.000   66.7    40   41.6   64.2   7.82  .0762    0.003   212    5    100.0   10 
 2/23/18  9:10a   33.4   33.4   32.9    86   29.7   5.0     E   0.83  11.0   ESE   28.7   33.2   28.5   33.9  30.518  0.00  0.00   219     3.14    230     0.0  0.00   0.0   0.219   0.000   66.9    40   41.8   64.4   7.81  .0762    0.000   211    5    100.0   10 
 2/23/18  9:20a   34.0   34.0   33.4    85   30.0   4.0   ESE   0.67  10.0     E   30.4   33.7   30.1   37.0  30.509  0.00  0.00   284     4.07    394     0.0  0.00   0.0   0.215   0.000   67.0    40   41.9   64.5   7.81  .0762    0.000   209    5    100.0   10 
 2/23/18  9:30a   35.0   35.0   34.0    85   30.9   5.0     E   0.83  11.0   ESE   30.6   34.8   30.4   40.3  30.510  0.00  0.00   372     5.33    443     0.0  0.00   0.0   0.208   0.000   67.1    40   42.0   64.6   7.81  .0761    0.000   209    5    100.0   10 
 2/23/18  9:40a   35.1   35.1   35.0    84   30.8   4.0   ESE   0.67  12.0   ENE   31.7   34.9   31.5   37.2  30.521  0.00  0.00   227     3.25    253     0.0  0.00   0.0   0.208   0.000   67.1    40   42.0   64.6   7.81  .0762    0.000   213    5    100.0   10 
 2/23/18  9:50a   35.7   35.7   35.0    84   31.3   3.0   ESE   0.50   9.0   ESE   33.5   35.5   33.3   40.5  30.517  0.00  0.00   301     4.31    352     0.0  0.00   0.0   0.203   0.000   67.2    39   41.4   64.6   7.71  .0762    0.000   212    5    100.0   10 
 2/23/18 10:00a   36.0   36.0   35.7    83   31.3   4.0     E   0.67   9.0     E   32.7   35.8   32.5   39.2  30.518  0.00  0.00   270     3.87    316     0.0  0.00   0.0   0.201   0.000   67.3    39   41.5   64.7   7.70  .0762    0.004   213    5    100.0   10 
 2/23/18 10:10a   37.1   37.1   36.0    83   32.4   3.0   ESE   0.50   9.0     E   35.1   36.9   34.9   45.7  30.514  0.00  0.00   448     6.42    492     0.0  0.00   0.0   0.194   0.000   67.3    39   41.5   64.7   7.70  .0761    0.000   212    5    100.0   10 
 2/23/18 10:20a   37.5   37.6   37.1    81   32.2   3.0   ESE   0.50  10.0     E   35.5   37.2   35.2   42.7  30.510  0.00  0.00   312     4.47    404     0.0  0.00   0.0   0.191   0.000   67.4    39   41.6   64.8   7.70  .0761    0.000   212    5    100.0   10 
 2/23/18 10:30a   38.0   38.0   37.6    81   32.7   4.0   ESE   0.67   8.0   ESE   35.0   37.7   34.7   42.9  30.513  0.00  0.00   385     5.52    459     0.0  0.00   0.0   0.188   0.000   67.5    39   41.7   64.9   7.70  .0761    0.000   211    5    100.0   10 
 2/23/18 10:40a   39.0   39.1   38.1    80   33.4   4.0     E   0.67  10.0   ESE   36.2   38.7   35.9   47.0  30.515  0.00  0.00   486     6.97    636     0.0  0.00   0.0   0.181   0.000   67.6    39   41.7   65.0   7.70  .0761    0.000   212    5    100.0   10 
 2/23/18 10:50a   39.5   39.5   39.1    79   33.5   2.0   ESE   0.33   7.0     E   39.2   39.2   38.9   47.5  30.508  0.00  0.00   414     5.93    543     0.0  0.00   0.0   0.177   0.000   67.6    39   41.7   65.0   7.70  .0761    0.000   210    5    100.0   10 
 2/23/18 11:00a   40.6   40.6   39.5    79   34.6   1.0    SE   0.17   6.0     E   40.6   40.3   40.3   51.9  30.514  0.00  0.00   521     7.47    606     0.0  0.00   0.0   0.169   0.000   67.7    39   41.8   65.1   7.70  .0761    0.007   211    5    100.0   10 
 2/23/18 11:10a   41.8   41.8   40.6    78   35.4   1.0     E   0.17   4.0     E   41.8   41.5   41.5   51.5  30.520  0.00  0.00   471     6.75    601     0.0  0.00   0.0   0.161   0.000   67.8    39   41.9   65.3   7.69  .0761    0.000   213    5    100.0   10 
 2/23/18 11:20a   41.5   42.0   41.5    76   34.5   1.0   SSW   0.17   4.0   SSE   41.5   41.1   41.1   50.0  30.519  0.00  0.00   439     6.29    580     0.0  0.00   0.0   0.163   0.000   67.9    39   42.0   65.4   7.69  .0761    0.000   210    5    100.0   10 
 2/23/18 11:30a   41.9   41.9   41.3    77   35.2   5.0   SSW   0.83  11.0    SW   38.7   41.5   38.3   51.4  30.518  0.00  0.00   588     8.43    612     0.0  0.00   0.0   0.160   0.000   68.0    39   42.1   65.5   7.69  .0760    0.000   213    5    100.0   10 
 2/23/18 11:40a   41.9   42.0   41.8    76   34.9   9.0   SSW   1.50  14.0   SSE   36.4   41.5   36.0   47.7  30.506  0.00  0.00   587     8.41    608     0.0  0.00   0.0   0.160   0.000   68.1    39   42.2   65.6   7.69  .0760    0.000   213    5    100.0   10 
 2/23/18 11:50a   42.4   42.4   41.8    73   34.4   9.0   SSW   1.50  13.0   SSE   36.9   41.9   36.4   47.7  30.509  0.00  0.00   573     8.21    578     0.0  0.00   0.0   0.157   0.000   68.2    39   42.3   65.7   7.69  .0760    0.000   212    5    100.0   10 
 2/23/18 12:00p   42.5   42.6   42.4    72   34.1  10.0   SSW   1.67  16.0   SSW   36.6   42.0   36.1   47.6  30.500  0.00  0.00   599     8.59    728     0.0  0.00   0.0   0.156   0.000   68.3    39   42.4   65.8   7.68  .0759    0.009   210    5    100.0   10 
 2/23/18 12:10p   42.5   42.5   42.3    72   34.1  11.0   SSW   1.83  17.0   SSE   36.1   42.0   35.6   42.8  30.495  0.00  0.00   435     6.24    654     0.0  0.00   0.0   0.156   0.000   68.4    39   42.5   65.9   7.68  .0759    0.000   211    5    100.0   10 
 2/23/18 12:20p   42.8   42.8   42.5    73   34.7  11.0   SSW   1.83  17.0     S   36.5   42.3   36.0   47.8  30.493  0.00  0.00   624     8.95    670     0.0  0.00   0.0   0.154   0.000   68.4    40   43.1   66.0   7.78  .0759    0.000   212    5    100.0   10 
 2/23/18 12:30p   42.9   42.9   42.7    71   34.1  11.0   SSW   1.83  14.0   SSW   36.6   42.3   36.0   47.0  30.495  0.00  0.00   586     8.40    631     0.0  0.00   0.0   0.153   0.000   68.5    40   43.2   66.1   7.78  .0759    0.000   214    5    100.0   10 
 2/23/18 12:40p   43.2   43.2   42.9    71   34.4  10.0   SSW   1.67  15.0     S   37.3   42.7   36.8   44.9  30.492  0.00  0.00   451     6.47    596     0.0  0.00   0.0   0.151   0.000   68.5    40   43.2   66.1   7.78  .0759    0.000   211    5    100.0   10 
 2/23/18 12:50p   43.4   43.5   43.2    71   34.6  11.0   SSW   1.83  15.0   SSW   37.1   42.9   36.6   43.7  30.490  0.00  0.00   419     6.01    526     0.0  0.00   0.0   0.150   0.000   68.6    40   43.3   66.2   7.78  .0758    0.000   209    5    100.0   10 
 2/23/18  1:00p   43.4   43.4   43.1    72   35.0  11.0   SSW   1.83  16.0   SSE   37.1   42.9   36.6   43.7  30.486  0.00  0.00   385     5.52    575     0.0  0.00   0.0   0.150   0.000   68.6    40   43.3   66.2   7.78  .0758    0.010   213    5    100.0   10 
 2/23/18  1:10p   43.4   43.6   43.4    70   34.3  12.0   SSW   2.00  20.0   SSE   36.7   42.8   36.1   45.6  30.478  0.00  0.00   517     7.41    728     0.0  0.00   0.0   0.150   0.000   68.7    40   43.4   66.3   7.78  .0758    0.000   213    5    100.0   10 
 2/23/18  1:20p   43.3   43.4   43.3    71   34.5  12.0   SSW   2.00  18.0     S   36.6   42.8   36.1   42.6  30.470  0.00  0.00   341     4.89    360     0.0  0.00   0.0   0.151   0.000   68.7    40   43.4   66.3   7.78  .0758    0.000   212    5    100.0   10 
 2/23/18  1:30p   43.4   43.4   43.2    72   35.0  14.0   SSW   2.33  20.0   SSW   36.0   42.9   35.5   41.7  30.458  0.00  0.00   354     5.07    432     0.0  0.00   0.0   0.150   0.000   68.8    40   43.5   66.4   7.77  .0757    0.000   211    5    100.0   10 
 2/23/18  1:40p   43.4   43.5   43.3    72   35.0  13.0   SSW   2.17  19.0     S   36.3   42.9   35.8   41.8  30.464  0.00  0.00   317     4.54    367     0.0  0.00   0.0   0.150   0.000   68.8    40   43.5   66.4   7.77  .0757    0.000   213    5    100.0   10 
 2/23/18  1:50p   43.7   43.7   43.3    70   34.6  12.0   SSW   2.00  19.0   SSW   37.1   43.2   36.6   43.3  30.465  0.00  0.00   370     5.30    461     0.0  0.00   0.0   0.148   0.000   68.8    40   43.5   66.4   7.77  .0757    0.000   211    5    100.0   10 
 2/23/18  2:00p   43.7   43.8   43.7    69   34.2  12.0   SSW   2.00  16.0   SSW   37.1   43.1   36.5   42.7  30.465  0.00  0.00   322     4.62    531     0.0  0.00   0.0   0.148   0.000   68.9    40   43.6   66.5   7.77  .0757    0.008   213    5    100.0   10 
 2/23/18  2:10p   43.6   43.9   43.6    70   34.5  12.0   SSW   2.00  16.0   SSW   37.0   43.1   36.5   41.6  30.467  0.00  0.00   248     3.56    276     0.0  0.00   0.0   0.149   0.000   68.9    40   43.6   66.5   7.77  .0757    0.000   212    5    100.0   10 
 2/23/18  2:20p   43.7   43.7   43.6    71   34.9  12.0   SSW   2.00  17.0   SSE   37.1   43.2   36.6   39.4  30.464  0.00  0.00   152     2.18    214     0.0  0.00   0.0   0.148   0.000   69.0    40   43.7   66.6   7.77  .0757    0.000   212    5    100.0   10 
 2/23/18  2:30p   43.6   43.7   43.5    71   34.8  12.0   SSW   2.00  17.0   SSE   37.0   43.1   36.5   37.0  30.463  0.00  0.00    75     1.08     88     0.0  0.00   0.0   0.149   0.000   69.0    39   43.0   66.5   7.67  .0757    0.000   213    5    100.0   10 
 2/23/18  2:40p   43.6   43.7   43.5    70   34.5  12.0   SSW   2.00  18.0     S   37.0   43.1   36.5   37.1  30.463  0.00  0.00    74     1.06     83     0.0  0.00   0.0   0.149   0.000   69.0    39   43.0   66.5   7.67  .0757    0.000   211    5    100.0   10 
 2/23/18  2:50p   43.5   43.8   43.5    70   34.4  13.0   SSW   2.17  18.0   SSE   36.5   43.0   36.0   36.8  30.456  0.00  0.00    80     1.15     90     0.0  0.00   0.0   0.149   0.000   69.0    39   43.0   66.5   7.67  .0757    0.000   211    5    100.0   10 
 2/23/18  3:00p   43.0   43.5   43.0    69   33.5   9.0   SSW   1.50  18.0   SSW   37.6   42.4   37.0   37.7  30.450  0.00  0.00    74     1.06     84     0.0  0.00   0.0   0.153   0.000   69.0    39   43.0   66.5   7.67  .0757    0.004   214    5    100.0   10 
 2/23/18  3:10p   43.2   43.3   43.0    71   34.4   7.0     S   1.17  15.0    SW   39.0   42.7   38.5   39.6  30.443  0.00  0.00    81     1.16     84     0.0  0.00   0.0   0.151   0.000   69.0    39   43.0   66.5   7.67  .0757    0.000   212    5    100.0   10 
 2/23/18  3:20p   43.0   43.2   42.9    71   34.2   6.0     S   1.00  15.0   SSW   39.3   42.4   38.7   40.6  30.443  0.00  0.00   101     1.45    134     0.0  0.00   0.0   0.153   0.000   69.0    39   43.0   66.5   7.67  .0757    0.000   211    5    100.0   10 
 2/23/18  3:30p   43.0   43.1   42.9    71   34.2   6.0     S   1.00  16.0   SSE   39.3   42.4   38.7   41.3  30.441  0.00  0.00   132     1.89    137     0.0  0.00   0.0   0.153   0.000   69.0    39   43.0   66.5   7.67  .0757    0.000   212    5    100.0   10 
 2/23/18  3:40p   42.9   43.0   42.8    72   34.5   6.0     S   1.00  13.0   SSE   39.2   42.4   38.7   40.3  30.441  0.00  0.00   105     1.51    120     0.0  0.00   0.0   0.153   0.000   69.0    39   43.0   66.5   7.67  .0757    0.000   213    5    100.0   10 
 2/23/18  3:50p   42.6   42.9   42.6    71   33.9   5.0     S   0.83  12.0     S   39.5   42.0   38.9   37.2  30.434  0.00  0.00    92     1.32     95     0.0  0.00   0.0   0.156   0.000   69.1    39   43.1   66.6   7.67  .0756    0.000   211    5    100.0   10 
 2/23/18  4:00p   42.7   42.7   42.5    73   34.6   7.0     S   1.17  13.0     S   38.4   42.2   37.9   35.7  30.436  0.00  0.00    68     0.97     86     0.0  0.00   0.0   0.155   0.000   69.1    39   43.1   66.6   7.67  .0756    0.003   212    5    100.0   10 
 2/23/18  4:10p   42.8   42.8   42.7    73   34.7   8.0     S   1.33  14.0     S   38.0   42.3   37.5   35.4  30.434  0.00  0.00    67     0.96     81     0.0  0.00   0.0   0.154   0.000   69.1    39   43.1   66.6   7.67  .0756    0.000   212    5    100.0   10 
 2/23/18  4:20p   42.8   42.9   42.7    73   34.7   7.0     S   1.17  16.0    SW   38.5   42.3   38.0   35.9  30.431  0.00  0.00    72     1.03     83     0.0  0.00   0.0   0.154   0.000   69.1    39   43.1   66.6   7.67  .0756    0.000   210    5    100.0   10 
 2/23/18  4:30p   42.8   42.8   42.7    73   34.7   7.0     S   1.17  13.0     S   38.5   42.3   38.0   36.5  30.425  0.00  0.00    99     1.42    113     0.0  0.00   0.0   0.154   0.000   69.1    39   43.1   66.6   7.67  .0756    0.000   214    5    100.0   10 
 2/23/18  4:40p   42.7   43.0   42.7    73   34.6   8.0     S   1.33  14.0     S   37.8   42.2   37.3   35.2  30.420  0.00  0.00    65     0.93     81     0.0  0.00   0.0   0.155   0.000   69.1    39   43.1   66.6   7.67  .0756    0.000   210    5    100.0   10 
 2/23/18  4:50p   42.8   42.9   42.7    73   34.7   8.0     S   1.33  15.0     S   38.0   42.3   37.5   35.0  30.415  0.00  0.00    47     0.67     53     0.0  0.00   0.0   0.154   0.000   69.1    39   43.1   66.6   7.67  .0756    0.000   212    5    100.0   10 
 2/23/18  5:00p   43.0   43.0   42.8    74   35.3   9.0     S   1.50  22.0   SSE   37.6   42.6   37.2   34.7  30.406  0.00  0.00    41     0.59     46     0.0  0.00   0.0   0.153   0.000   69.1    39   43.1   66.6   7.67  .0756    0.002   212    5    100.0   10 
 2/23/18  5:10p   43.0   43.1   42.9    75   35.6  10.0     S   1.67  23.0   SSE   37.1   42.6   36.7   34.1  30.400  0.00  0.00    33     0.47     40     0.0  0.00   0.0   0.153   0.000   69.1    39   43.1   66.6   7.67  .0756    0.000   213    5    100.0   10 
 2/23/18  5:20p   43.0   43.1   42.9    75   35.6  10.0     S   1.67  18.0   SSW   37.1   42.6   36.7   34.0  30.403  0.00  0.00    24     0.34     26     0.0  0.00   0.0   0.153   0.000   69.1    39   43.1   66.6   7.67  .0756    0.000   212    5    100.0   10 
 2/23/18  5:30p   43.0   43.0   42.9    77   36.3  10.0     S   1.67  22.0   SSW   37.1   42.6   36.7   33.8  30.400  0.00  0.00    13     0.19     21     0.0  0.00   0.0   0.153   0.000   69.1    39   43.1   66.6   7.67  .0756    0.000   212    5    100.0   10 
 2/23/18  5:40p   42.8   43.0   42.7    77   36.1  10.0     S   1.67  18.0   SSW   36.9   42.4   36.5   33.5  30.399  0.00  0.00     9     0.13      9     0.0  0.00   0.0   0.154   0.000   69.1    39   43.1   66.6   7.67  .0756    0.000   208    5    100.0   10 
 2/23/18  5:50p   42.9   42.9   42.7    78   36.5  10.0     S   1.67  17.0   SSE   37.0   42.6   36.7   33.5  30.397  0.00  0.00     1     0.01      5     0.0  0.00   0.0   0.153   0.000   69.1    39   43.1   66.6   7.67  .0755    0.000   211    5    100.0   10 
 2/23/18  6:00p   42.5   42.9   42.5    79   36.4   9.0     S   1.50  17.0   SSE   37.1   42.2   36.8   33.5  30.395  0.00  0.00     0     0.00      0     0.0  0.00   0.0   0.156   0.000   69.2    40   43.8   66.7   7.77  .0755    0.002   213    5    100.0   10 
 2/23/18  6:10p   42.5   42.7   42.4    80   36.8  10.0     S   1.67  23.0     S   36.6   42.2   36.3   33.1  30.394  0.00  0.00     0     0.00      0     0.0  0.00   0.0   0.156   0.000   69.2    40   43.8   66.7   7.77  .0755    0.000   211    5    100.0   10 
 2/23/18  6:20p   42.6   42.6   42.4    81   37.2  10.0     S   1.67  17.0    SE   36.7   42.3   36.4   33.3  30.389  0.00  0.00     0     0.00      0     0.0  0.00   0.0   0.156   0.000   69.2    40   43.8   66.7   7.77  .0755    0.000   210    5    100.0   10 
 2/23/18  6:30p   42.7   43.0   42.6    81   37.3  11.0     S   1.83  20.0     S   36.3   42.4   36.0   33.0  30.390  0.00  0.00     0     0.00      0     0.0  0.00   0.0   0.155   0.000   69.2    40   43.8   66.7   7.77  .0755    0.000   213    5    100.0   10 
 2/23/18  6:40p   42.8   42.8   42.6    81   37.4  10.0     S   1.67  19.0     S   36.9   42.5   36.6   33.5  30.389  0.00  0.00     0     0.00      0     0.0  0.00   0.0   0.154   0.000   69.2    40   43.8   66.7   7.77  .0755    0.000   213    5    100.0   10 
 2/23/18  6:50p   43.3   43.5   42.8    82   38.2  12.0     S   2.00  24.0   SSW   36.6   43.1   36.4   33.5  30.388  0.00  0.00     0     0.00      0     0.0  0.00   0.0   0.151   0.000   69.2    40   43.8   66.7   7.77  .0755    0.000   212    5    100.0   10 
 2/23/18  7:00p   43.3   43.4   43.2    83   38.5  12.0     S   2.00  18.0   SSW   36.6   43.1   36.4   33.5  30.383  0.00  0.00     0     0.00      0     0.0  0.00   0.0   0.151   0.000   69.2    40   43.8   66.7   7.77  .0755    0.001   214    5    100.0   10 
 2/23/18  7:10p   42.9   43.3   42.9    83   38.1  10.0     S   1.67  19.0   SSW   37.0   42.7   36.8   33.7  30.382  0.00  0.00     0     0.00      0     0.0  0.00   0.0   0.153   0.000   69.2    40   43.8   66.7   7.77  .0755    0.000   211    5    100.0   10 
 2/23/18  7:20p   42.5   42.9   42.5    85   38.3  10.0     S   1.67  19.0     S   36.6   42.3   36.4   33.3  30.379  0.00  0.00     0     0.00      0     0.0  0.00   0.0   0.156   0.000   69.1    40   43.8   66.7   7.77  .0755    0.000   213    5    100.0   10 
 2/23/18  7:30p   42.4   42.5   42.2    87   38.8  10.0     S   1.67  18.0   SSW   36.4   42.3   36.3   33.2  30.375  0.01  0.00     0     0.00      0     0.0  0.00   0.0   0.157   0.000   69.1    40   43.8   66.7   7.77  .0755    0.000   214    5    100.0   10 
 2/23/18  7:40p   42.5   42.6   42.4    87   38.9  11.0     S   1.83  19.0     S   36.1   42.4   36.0   33.0  30.373  0.00  0.00     0     0.00      0     0.0  0.00   0.0   0.156   0.000   69.1    40   43.8   66.7   7.77  .0755    0.000   211    5    100.0   10 
 2/23/18  7:50p   42.7   42.7   42.5    88   39.4  11.0     S   1.83  22.0   SSW   36.3   42.6   36.2   33.2  30.370  0.00  0.00     0     0.00      0     0.0  0.00   0.0   0.155   0.000   69.1    40   43.8   66.7   7.77  .0755    0.000   213    5    100.0   10 
 2/23/18  8:00p   42.5   42.9   42.5    89   39.5  11.0     S   1.83  19.0   SSE   36.1   42.5   36.1   33.1  30.367  0.00  0.00     0     0.00      0     0.0  0.00   0.0   0.156   0.000   69.1    40   43.8   66.7   7.77  .0755    0.001   210    5    100.0   10 
 2/23/18  8:10p   42.5   42.5   42.5    90   39.8   9.0     S   1.50  19.0     S   37.1   42.5   37.1   33.9  30.361  0.01  0.00     0     0.00      0     0.0  0.00   0.0   0.156   0.000   69.0    40   43.7   66.6   7.77  .0755    0.000   210    5    100.0   10 
 2/23/18  8:20p   42.8   42.8   42.5    91   40.4  11.0   SSW   1.83  22.0     S   36.5   42.8   36.5   33.6  30.355  0.00  0.00     0     0.00      0     0.0  0.00   0.0   0.154   0.000   69.0    40   43.7   66.6   7.77  .0754    0.000   211    5    100.0   10 
 2/23/18  8:30p   42.9   42.9   42.7    92   40.7  10.0     S   1.67  21.0     S   37.0   42.9   37.0   34.0  30.348  0.01  0.00     0     0.00      0     0.0  0.00   0.0   0.153   0.000   68.9    40   43.6   66.5   7.77  .0754    0.000   210    5    100.0   10 
 2/23/18  8:40p   42.9   43.0   42.8    91   40.5  10.0     S   1.67  19.0     S   37.0   42.9   37.0   34.0  30.345  0.00  0.00     0     0.00      0     0.0  0.00   0.0   0.153   0.000   68.8    40   43.5   66.4   7.77  .0754    0.000   213    5    100.0   10 
 2/23/18  8:50p   42.9   42.9   42.8    92   40.7  11.0     S   1.83  18.0   SSE   36.6   42.9   36.6   33.7  30.344  0.01  0.04     0     0.00      0     0.0  0.00   0.0   0.153   0.000   68.8    40   43.5   66.4   7.77  .0754    0.000   214    5    100.0   10 
 2/23/18  9:00p   43.2   43.2   42.8    92   41.0  11.0     S   1.83  20.0   SSW   36.9   43.3   37.0   34.1  30.341  0.01  0.05     0     0.00      0     0.0  0.00   0.0   0.151   0.000   68.7    40   43.4   66.3   7.78  .0755    0.001   210    5    100.0   10 
 2/23/18  9:10p   43.4   43.5   43.2    92   41.2  12.0     S   2.00  26.0   SSE   36.7   43.5   36.8   34.0  30.337  0.01  0.05     0     0.00      0     0.0  0.00   0.0   0.150   0.000   68.5    40   43.2   66.1   7.78  .0755    0.000   210    5    100.0   10 
 2/23/18  9:20p   43.5   43.7   43.4    92   41.3  10.0     S   1.67  18.0     S   37.7   43.6   37.8   34.8  30.337  0.01  0.05     0     0.00      0     0.0  0.00   0.0   0.149   0.000   68.5    40   43.2   66.1   7.78  .0755    0.000   212    5    100.0   10 
 2/23/18  9:30p   43.6   43.6   43.4    93   41.7  12.0   SSW   2.00  24.0     S   37.0   43.7   37.1   34.3  30.330  0.01  0.08     0     0.00      0     0.0  0.00   0.0   0.149   0.000   68.4    40   43.1   66.0   7.78  .0755    0.000   209    5    100.0   10 
 2/23/18  9:40p   44.2   44.2   43.6    93   42.3  11.0     S   1.83  24.0     S   38.0   44.4   38.2   35.4  30.324  0.01  0.14     0     0.00      0     0.0  0.00   0.0   0.144   0.000   68.3    40   43.0   65.9   7.78  .0755    0.000   210    5    100.0   10 
 2/23/18  9:50p   44.0   44.3   43.8    93   42.1  13.0   SSW   2.17  26.0     S   37.0   44.2   37.2   34.6  30.326  0.02  0.12     0     0.00      0     0.0  0.00   0.0   0.146   0.000   68.2    40   42.9   65.8   7.79  .0755    0.000   213    5    100.0   10 
 2/23/18 10:00p   43.8   44.2   43.7    94   42.2  12.0   SSW   2.00  19.0   SSW   37.2   44.0   37.4   34.7  30.325  0.00  0.04     0     0.00      0     0.0  0.00   0.0   0.147   0.000   68.1    40   42.9   65.7   7.79  .0755    0.001   211    5    100.0   10 
 2/23/18 10:10p   43.6   43.8   43.5    93   41.7  13.0   SSW   2.17  21.0   SSW   36.6   43.7   36.7   34.0  30.324  0.00  0.00     0     0.00      0     0.0  0.00   0.0   0.149   0.000   68.0    40   42.8   65.6   7.79  .0755    0.000   211    5    100.0   10 
 2/23/18 10:20p   43.6   43.8   43.6    93   41.7  10.0   SSW   1.67  18.0   SSW   37.8   43.7   37.9   34.9  30.320  0.00  0.00     0     0.00      0     0.0  0.00   0.0   0.149   0.000   67.9    40   42.7   65.5   7.79  .0755    0.000   214    5    100.0   10 
 2/23/18 10:30p   43.5   43.8   43.4    93   41.6  11.0   SSW   1.83  17.0   SSE   37.3   43.6   37.4   34.5  30.316  0.00  0.00     0     0.00      0     0.0  0.00   0.0   0.149   0.000   67.8    40   42.6   65.4   7.79  .0755    0.000   210    5    100.0   10 
 2/23/18 10:40p   43.1   43.5   43.1    93   41.2  11.0   SSW   1.83  18.0     S   36.8   43.2   36.9   34.0  30.309  0.02  0.15     0     0.00      0     0.0  0.00   0.0   0.152   0.000   67.7    40   42.5   65.3   7.80  .0755    0.000   209    5    100.0   10 
 2/23/18 10:50p   43.3   43.3   43.1    94   41.7   8.0     S   1.33  15.0   WSW   38.6   43.4   38.7   35.5  30.305  0.03  0.24     0     0.00      0     0.0  0.00   0.0   0.151   0.000   67.6    40   42.4   65.2   7.80  .0755    0.000   214    5    100.0   10 
 2/23/18 11:00p   44.0   44.0   43.3    94   42.4   8.0     S   1.33  17.0     S   39.4   44.2   39.6   36.5  30.300  0.00  0.05     0     0.00      0     0.0  0.00   0.0   0.146   0.000   67.5    40   42.3   65.1   7.80  .0756    0.000   212    5    100.0   10 
 2/23/18 11:10p   44.8   44.8   44.0    94   43.2  12.0   SSW   2.00  20.0   SSW   38.4   45.0   38.6   35.9  30.294  0.00  0.00     0     0.00      0     0.0  0.00   0.0   0.140   0.000   67.4    40   42.2   64.9   7.80  .0756    0.000   213    5    100.0   10 
 2/23/18 11:20p   46.5   46.5   44.5    94   44.9  14.0   SSW   2.33  23.0   SSE   39.6   46.8   39.9   37.4  30.290  0.00  0.00     0     0.00      0     0.0  0.00   0.0   0.128   0.000   67.3    40   42.1   64.8   7.80  .0756    0.000   212    5    100.0   10 
 2/23/18 11:30p   47.0   47.2   46.5    93   45.1  16.0    SW   2.67  24.0    SW   39.5   47.3   39.8   37.5  30.291  0.01  0.00     0     0.00      0     0.0  0.00   0.0   0.125   0.000   67.2    40   42.0   64.7   7.81  .0756    0.000   213    5    100.0   10 
 2/23/18 11:40p   47.2   47.2   46.9    93   45.3  16.0    SW   2.67  23.0     S   39.7   47.5   40.0   37.7  30.289  0.00  0.00     0     0.00      0     0.0  0.00   0.0   0.124   0.000   67.1    40   42.0   64.6   7.81  .0756    0.000   212    5    100.0   10 
 2/23/18 11:50p   47.5   47.5   47.2    92   45.3  16.0    SW   2.67  24.0    SW   40.1   47.8   40.4   38.1  30.283  0.00  0.00     0     0.00      0     0.0  0.00   0.0   0.122   0.000   67.0    40   41.9   64.5   7.81  .0756    0.000   213    5    100.0   10 
 2/24/18 12:00a   47.7   47.7   47.4    92   45.5  16.0    SW   2.67  26.0    SW   40.3   48.0   40.6   38.3  30.277  0.00  0.00     0     0.00      0     0.0  0.00   0.0   0.120   0.000   66.9    40   41.8   64.4   7.81  .0756    0.001   211    5    100.0   10 
 2/24/18 12:10a   47.7   47.8   47.5    92   45.5  17.0    SW   2.83  24.0    SW   40.0   48.0   40.3   38.1  30.272  0.00  0.00     0     0.00      0     0.0  0.00   0.0   0.120   0.000   66.8    40   41.7   64.3   7.81  .0756    0.000   210    5    100.0   10 
 2/24/18 12:20a   47.7   47.8   47.6    91   45.2  19.0    SW   3.17  25.0     S   39.5   47.9   39.7   37.6  30.265  0.00  0.00     0     0.00      0     0.0  0.00   0.0   0.120   0.000   66.7    40   41.6   64.2   7.82  .0756    0.000   210    5    100.0   10 
 2/24/18 12:30a   47.8   47.8   47.7    91   45.3  18.0    SW   3.00  25.0   WSW   39.9   48.0   40.1   37.9  30.258  0.00  0.00     0     0.00      0     0.0  0.00   0.0   0.119   0.000   66.6    40   41.5   64.1   7.82  .0756    0.000   212    5    100.0   10 
 2/24/18 12:40a   47.6   47.8   47.4    91   45.1  18.0    SW   3.00  27.0    SW   39.6   47.8   39.8   37.6  30.259  0.00  0.00     0     0.00      0     0.0  0.00   0.0   0.121   0.000   66.6    40   41.5   64.1   7.82  .0756    0.000   212    5    100.0   10 
 2/24/18 12:50a   47.8   47.8   47.6    90   45.0  19.0    SW   3.17  26.0   SSW   39.6   48.0   39.8   37.7  30.256  0.00  0.00     0     0.00      0     0.0  0.00   0.0   0.119   0.000   66.5    40   41.4   64.0   7.82  .0756    0.000   186    5     89.9   10 
 2/24/18  1:00a   47.4   48.0   47.0    91   44.9  19.0    SW   3.17  29.0   WSW   39.1   47.6   39.3   37.1  30.256  0.00  0.00     0     0.00      0     0.0  0.00   0.0   0.122   0.000   66.4    40   41.3   63.8   7.82  .0756    0.001   212    5    100.0   10 
 2/24/18  1:10a   47.8   47.8   47.4    91   45.3  18.0    SW   3.00  28.0    SW   39.9   48.0   40.1   37.9  30.250  0.00  0.00     0     0.00      0     0.0  0.00   0.0   0.119   0.000   66.3    40   41.2   63.7   7.82  .0756    0.000   211    5    100.0   10 
 2/24/18  1:20a   47.8   47.9   47.7    90   45.0  20.0    SW   3.33  26.0    SW   39.4   48.0   39.6   37.5  30.244  0.00  0.00     0     0.00      0     0.0  0.00   0.0   0.119   0.000   66.2    40   41.2   63.6   7.83  .0756    0.000   213    5    100.0   10 
 2/24/18  1:30a   48.0   48.0   47.8    91   45.5  19.0    SW   3.17  27.0     S   39.8   48.2   40.0   37.9  30.243  0.00  0.00     0     0.00      0     0.0  0.00   0.0   0.118   0.000   66.1    40   41.1   63.5   7.83  .0756    0.000   210    5    100.0   10 
 2/24/18  1:40a   47.6   47.9   47.6    90   44.8  21.0    SW   3.50  29.0    SW   38.9   47.8   39.1   37.0  30.237  0.01  0.00     0     0.00      0     0.0  0.00   0.0   0.121   0.000   66.0    40   41.0   63.4   7.83  .0756    0.000   210    5    100.0   10 
 2/24/18  1:50a   47.4   47.7   47.3    90   44.6  21.0    SW   3.50  30.0    SW   38.6   47.6   38.8   36.7  30.233  0.00  0.00     0     0.00      0     0.0  0.00   0.0   0.122   0.000   66.0    40   41.0   63.4   7.83  .0756    0.000   213    5    100.0   10 
 2/24/18  2:00a   47.0   47.4   47.0    91   44.5  22.0    SW   3.67  29.0     W   38.0   47.2   38.2   36.2  30.241  0.01  0.00     0     0.00      0     0.0  0.00   0.0   0.125   0.000   65.9    40   40.9   63.3   7.83  .0757    0.001   211    5    100.0   10 
 2/24/18  2:10a   46.7   47.2   46.7    92   44.5  18.0    SW   3.00  26.0    SW   38.6   46.9   38.8   36.5  30.238  0.01  0.06     0     0.00      0     0.0  0.00   0.0   0.127   0.000   65.8    40   40.8   63.2   7.83  .0757    0.000   212    5    100.0   10 
 2/24/18  2:20a   46.3   46.7   46.3    93   44.4  16.0   WSW   2.67  23.0    SW   38.7   46.5   38.9   36.5  30.238  0.01  0.36     0     0.00      0     0.0  0.00   0.0   0.130   0.000   65.7    40   40.7   63.1   7.84  .0757    0.000   213    5    100.0   10 
 2/24/18  2:30a   46.5   46.6   46.2    94   44.9  19.0    SW   3.17  28.0    SW   38.1   46.8   38.4   36.2  30.236  0.01  0.06     0     0.00      0     0.0  0.00   0.0   0.128   0.000   65.7    40   40.7   63.1   7.84  .0757    0.000   212    5    100.0   10 
 2/24/18  2:40a   46.6   46.6   46.2    93   44.7  17.0   WSW   2.83  24.0    SW   38.8   46.8   39.0   36.7  30.226  0.00  0.00     0     0.00      0     0.0  0.00   0.0   0.128   0.000   65.6    40   40.6   63.0   7.84  .0757    0.000   214    5    100.0   10 
 2/24/18  2:50a   47.6   47.6   46.6    89   44.5  17.0   WSW   2.83  26.0    SW   39.9   47.8   40.1   37.8  30.221  0.01  0.00     0     0.00      0     0.0  0.00   0.0   0.121   0.000   65.5    40   40.5   62.9   7.84  .0757    0.000   213    5    100.0   10 
 2/24/18  3:00a   47.8   47.9   47.6    89   44.7  18.0    SW   3.00  27.0    SW   39.9   48.0   40.1   37.8  30.214  0.00  0.00     0     0.00      0     0.0  0.00   0.0   0.119   0.000   65.4    40   40.4   62.8   7.84  .0757    0.001   213    5    100.0   10 
 2/24/18  3:10a   46.6   48.3   46.6    86   42.6  21.0   WSW   3.50  31.0     W   37.8   46.6   37.8   35.7  30.216  0.00  0.00     0     0.00      0     0.0  0.00   0.0   0.128   0.000   65.4    40   40.4   62.8   7.84  .0757    0.000   213    5    100.0   10 
 2/24/18  3:20a   46.9   46.9   46.1    92   44.7  19.0   WSW   3.17  29.0   WSW   38.6   47.1   38.8   36.6  30.210  0.01  0.00     0     0.00      0     0.0  0.00   0.0   0.126   0.000   65.3    40   40.3   62.7   7.84  .0757    0.000   213    5    100.0   10 
 2/24/18  3:30a   46.1   46.9   46.1    91   43.6  20.0   WNW   3.33  34.0     W   37.4   46.2   37.5   35.4  30.214  0.00  0.00     0     0.00      0     0.0  0.00   0.0   0.131   0.000   65.2    40   40.3   62.6   7.85  .0757    0.000   211    5    100.0   10 
 2/24/18  3:40a   46.1   46.5   46.1    90   43.3  20.0   WNW   3.33  26.0     W   37.4   46.2   37.5   35.4  30.217  0.00  0.00     0     0.00      0     0.0  0.00   0.0   0.131   0.000   65.2    40   40.3   62.6   7.85  .0757    0.000   214    5    100.0   10 
 2/24/18  3:50a   45.8   46.1   45.6    91   43.3  16.0    NW   2.67  22.0    NW   38.1   45.9   38.2   35.8  30.215  0.00  0.00     0     0.00      0     0.0  0.00   0.0   0.133   0.000   65.1    40   40.2   62.5   7.85  .0757    0.000   212    5    100.0   10 
 2/24/18  4:00a   46.5   46.5   45.8    88   43.1  17.0   WNW   2.83  25.0   WNW   38.7   46.6   38.8   36.5  30.211  0.00  0.00     0     0.00      0     0.0  0.00   0.0   0.128   0.000   65.0    40   40.1   62.4   7.85  .0757    0.001   209    5    100.0   10 
 2/24/18  4:10a   47.5   47.5   46.5    81   42.0  19.0   WNW   3.17  28.0   WNW   39.3   47.4   39.2   36.9  30.217  0.00  0.00     0     0.00      0     0.0  0.00   0.0   0.122   0.000   65.0    40   40.1   62.4   7.85  .0758    0.000   212    5    100.0   10 
 2/24/18  4:20a   47.7   47.7   47.5    82   42.5  18.0   WNW   3.00  26.0    NW   39.7   47.6   39.6   37.3  30.215  0.00  0.00     0     0.00      0     0.0  0.00   0.0   0.120   0.000   64.9    40   40.0   62.3   7.85  .0758    0.000   209    5    100.0   10 
 2/24/18  4:30a   47.5   47.8   47.5    80   41.6  22.0     W   3.67  29.0     W   38.6   47.3   38.4   36.3  30.213  0.00  0.00     0     0.00      0     0.0  0.00   0.0   0.122   0.000   64.8    40   39.9   62.2   7.85  .0758    0.000   211    5    100.0   10 
 2/24/18  4:40a   47.5   47.6   47.4    80   41.6  20.0     W   3.33  26.0     W   39.0   47.3   38.8   36.6  30.214  0.00  0.00     0     0.00      0     0.0  0.00   0.0   0.122   0.000   64.7    40   39.8   62.1   7.85  .0758    0.000   212    5    100.0   10 
 2/24/18  4:50a   47.5   47.6   47.4    82   42.3  21.0   WNW   3.50  28.0     W   38.8   47.4   38.7   36.6  30.214  0.00  0.00     0     0.00      0     0.0  0.00   0.0   0.122   0.000   64.7    40   39.8   62.1   7.85  .0758    0.000   212    5    100.0   10 
 2/24/18  5:00a   46.5   47.6   46.5    82   41.3  20.0     W   3.33  27.0     W   37.8   46.4   37.7   35.5  30.212  0.00  0.00     0     0.00      0     0.0  0.00   0.0   0.128   0.000   64.7    40   39.8   62.1   7.85  .0758    0.002   211    5    100.0   10 
 2/24/18  5:10a   46.7   46.9   46.5    83   41.8  17.0   WNW   2.83  28.0     W   38.9   46.6   38.8   36.4  30.205  0.00  0.00     0     0.00      0     0.0  0.00   0.0   0.127   0.000   64.6    40   39.7   62.0   7.85  .0758    0.000   212    5    100.0   10 
 2/24/18  5:20a   46.3   46.7   46.1    85   42.0  19.0     W   3.17  25.0     W   37.9   46.3   37.9   35.7  30.203  0.00  0.00     0     0.00      0     0.0  0.00   0.0   0.130   0.000   64.7    41   40.4   62.2   7.96  .0758    0.000   211    5    100.0   10 
 2/24/18  5:30a   47.2   47.2   46.3    84   42.6  19.0     W   3.17  26.0     W   38.9   47.2   38.9   36.7  30.198  0.00  0.00     0     0.00      0     0.0  0.00   0.0   0.124   0.000   64.8    41   40.5   62.3   7.95  .0757    0.000   213    5    100.0   10 
 2/24/18  5:40a   47.4   47.4   47.2    84   42.8  21.0     W   3.50  28.0   WNW   38.6   47.4   38.6   36.5  30.193  0.00  0.00     0     0.00      0     0.0  0.00   0.0   0.122   0.000   64.9    41   40.6   62.4   7.95  .0757    0.000   209    5    100.0   10 
 2/24/18  5:50a   46.7   47.4   46.5    86   42.7  24.0     W   4.00  32.0     W   37.2   46.7   37.2   35.3  30.195  0.00  0.00     0     0.00      0     0.0  0.00   0.0   0.127   0.000   65.1    41   40.8   62.6   7.95  .0757    0.000   211    5    100.0   10 
 2/24/18  6:00a   47.2   47.3   46.7    83   42.3  20.0   WNW   3.33  27.0     W   38.6   47.1   38.5   36.4  30.203  0.00  0.00     0     0.00      0     0.0  0.00   0.0   0.124   0.000   65.2    41   40.9   62.7   7.95  .0757    0.002   211    5    100.0   10 
 2/24/18  6:10a   44.7   47.2   44.4    85   40.5  18.0   WNW   3.00  30.0   WNW   36.3   44.6   36.2   33.9  30.208  0.00  0.00     0     0.00      0     0.0  0.00   0.0   0.141   0.000   65.4    41   41.1   62.9   7.95  .0757    0.000   211    5    100.0   10 
 2/24/18  6:20a   45.6   45.8   44.4    83   40.7  15.0   WNW   2.50  21.0     N   38.2   45.5   38.1   35.6  30.204  0.00  0.00     0     0.00      0     0.0  0.00   0.0   0.135   0.000   65.5    41   41.2   63.0   7.95  .0756    0.000   213    5    100.0   10 
 2/24/18  6:30a   44.0   46.0   44.0    87   40.4  16.0    NW   2.67  28.0     N   36.1   44.0   36.1   33.6  30.210  0.00  0.00     0     0.00      0     0.0  0.00   0.0   0.146   0.000   65.7    41   41.3   63.2   7.95  .0756    0.000   212    5    100.0   10 
 2/24/18  6:40a   44.0   44.0   43.8    88   40.7  10.0    NW   1.67  17.0   WNW   38.3   44.0   38.3   35.3  30.208  0.00  0.00     0     0.00      0     0.0  0.00   0.0   0.146   0.000   65.8    41   41.4   63.3   7.95  .0756    0.000   214    5    100.0   10 
 2/24/18  6:50a   44.8   44.8   44.0    87   41.2  10.0   WNW   1.67  15.0   WNW   39.3   44.8   39.3   36.3  30.198  0.00  0.00     0     0.00      0     0.0  0.00   0.0   0.140   0.000   66.0    42   42.2   63.6   8.13  .0755    0.000   213    5    100.0   10 
 2/24/18  7:00a   44.4   44.8   44.4    86   40.5  17.0     N   2.83  32.0   NNW   36.2   44.3   36.1   33.7  30.208  0.01  0.00     0     0.00      0     0.0  0.00   0.0   0.143   0.000   66.1    42   42.3   63.7   8.13  .0755    0.001   213    5    100.0   10 
 2/24/18  7:10a   44.0   44.3   43.7    88   40.7  16.0     N   2.67  27.0   NNW   36.1   44.0   36.1   33.6  30.209  0.01  0.06     0     0.00      0     0.0  0.00   0.0   0.146   0.000   66.3    42   42.5   63.9   8.12  .0755    0.000   209    5    100.0   10 
 2/24/18  7:20a   44.5   44.5   44.0    87   40.9  13.0     N   2.17  20.0     N   37.6   44.5   37.6   34.9  30.210  0.00  0.00     3     0.04     11     0.0  0.00   0.0   0.142   0.000   66.5    42   42.7   64.2   8.12  .0755    0.000   211    5    100.0   10 
 2/24/18  7:30a   45.2   45.2   44.5    84   40.7  16.0     N   2.67  25.0     N   37.4   45.1   37.3   35.0  30.214  0.00  0.00    11     0.16     14     0.0  0.00   0.0   0.137   0.000   66.6    42   42.8   64.3   8.12  .0755    0.000   212    5    100.0   10 
 2/24/18  7:40a   44.5   45.6   44.5    83   39.7  15.0     N   2.50  33.0   WNW   37.0   44.4   36.9   34.4  30.229  0.00  0.00     7     0.10     14     0.0  0.00   0.0   0.142   0.000   66.9    42   43.0   64.6   8.11  .0754    0.000   214    5    100.0   10 
 2/24/18  7:50a   43.8   44.4   43.5    86   39.9  17.0     N   2.83  24.0     N   35.6   43.7   35.5   33.3  30.230  0.01  0.00    14     0.20     19     0.0  0.00   0.0   0.147   0.000   67.0    42   43.1   64.7   8.11  .0754    0.000   211    5    100.0   10 
 2/24/18  8:00a   44.4   44.4   43.9    84   39.9  17.0     N   2.83  26.0     N   36.2   44.3   36.1   34.0  30.235  0.00  0.00    23     0.33     25     0.0  0.00   0.0   0.143   0.000   67.1    42   43.2   64.8   8.11  .0754    0.001   210    5    100.0   10 
 2/24/18  8:10a   44.7   44.8   44.5    84   40.2  12.0     N   2.00  19.0   NNE   38.2   44.6   38.1   35.8  30.235  0.00  0.00    30     0.43     44     0.0  0.00   0.0   0.141   0.000   67.3    42   43.4   65.1   8.10  .0754    0.000   212    5    100.0   10 
 2/24/18  8:20a   44.9   44.9   44.7    85   40.7  11.0     N   1.83  19.0   NNW   38.9   44.8   38.8   39.4  30.236  0.00  0.00    66     0.95     84     0.0  0.00   0.0   0.140   0.000   67.5    42   43.6   65.3   8.10  .0754    0.000   210    5    100.0   10 
 2/24/18  8:30a   44.9   44.9   44.7    83   40.0  12.0     N   2.00  17.0   NNE   38.5   44.8   38.4   39.5  30.239  0.00  0.00    80     1.15    190     0.0  0.00   0.0   0.140   0.000   67.7    41   43.1   65.4   7.95  .0753    0.000   213    5    100.0   10 
 2/24/18  8:40a   45.6   45.6   44.9    80   39.8  14.0     N   2.33  23.0   NNE   38.5   45.4   38.3   39.5  30.240  0.00  0.00    86     1.23    127     0.0  0.00   0.0   0.135   0.000   67.9    41   43.3   65.6   7.95  .0753    0.000   213    5    100.0   10 
 2/24/18  8:50a   46.0   46.0   45.6    77   39.2  16.0     N   2.67  26.0     N   38.3   45.7   38.0   39.2  30.243  0.00  0.00    90     1.29    118     0.0  0.00   0.0   0.132   0.000   68.1    42   44.1   65.9   8.09  .0753    0.000   213    5    100.0   10 
 2/24/18  9:00a   46.2   46.2   46.0    76   39.1  17.0     N   2.83  28.0     N   38.3   45.9   38.0   39.5  30.246  0.00  0.00   106     1.52    223     0.0  0.00   0.0   0.131   0.000   68.3    42   44.3   66.1   8.08  .0752    0.003   210    5    100.0   10 
 2/24/18  9:10a   46.2   46.3   46.0    77   39.4  17.0     N   2.83  25.0     N   38.3   45.9   38.0   40.0  30.250  0.00  0.00   127     1.82    251     0.0  0.00   0.0   0.131   0.000   68.4    41   43.8   66.1   7.95  .0753    0.000   214    5    100.0   10 
 2/24/18  9:20a   46.3   46.4   46.2    75   38.8  15.0   NNE   2.50  24.0     N   39.0   45.9   38.6   43.4  30.252  0.00  0.00   265     3.80    404     0.0  0.00   0.0   0.130   0.000   68.5    42   44.5   66.3   8.08  .0752    0.000   211    5    100.0   10 
 2/24/18  9:30a   46.2   46.3   46.1    74   38.4  16.0     N   2.67  26.0   NNE   38.5   45.8   38.1   41.7  30.254  0.00  0.00   197     2.82    413     0.0  0.00   0.0   0.131   0.000   68.6    42   44.6   66.4   8.08  .0752    0.000   212    5    100.0   10 
 2/24/18  9:40a   46.1   46.4   46.1    75   38.6  12.0    NW   2.00  24.0     N   39.8   45.7   39.4   43.0  30.262  0.00  0.00   181     2.59    199     0.0  0.00   0.0   0.131   0.000   68.5    41   43.9   66.2   7.95  .0753    0.000   213    5    100.0   10 
 2/24/18  9:50a   46.0   46.1   45.9    75   38.5  12.0   NNE   2.00  19.0    NE   39.7   45.6   39.3   42.6  30.264  0.00  0.00   170     2.44    178     0.0  0.00   0.0   0.132   0.000   68.5    41   43.9   66.2   7.95  .0753    0.000   213    5    100.0   10 
 2/24/18 10:00a   46.0   46.0   45.8    74   38.2  14.0   NNE   2.33  20.0    NW   39.0   45.6   38.6   41.4  30.268  0.00  0.00   162     2.32    197     0.0  0.00   0.0   0.132   0.000   68.5    41   43.9   66.2   7.95  .0753    0.006   211    5    100.0   10 
 2/24/18 10:10a   46.2   46.2   45.9    75   38.7  12.0   NNE   2.00  20.0     N   39.9   45.8   39.5   43.4  30.268  0.00  0.00   197     2.82    227     0.0  0.00   0.0   0.131   0.000   68.5    41   43.9   66.2   7.95  .0753    0.000   210    5    100.0   10 
 2/24/18 10:20a   46.1   46.3   46.1    75   38.6  11.0    NW   1.83  18.0   WNW   40.3   45.7   39.9   43.0  30.268  0.00  0.00   170     2.44    214     0.0  0.00   0.0   0.131   0.000   68.5    41   43.9   66.2   7.95  .0753    0.000   210    5    100.0   10 
 2/24/18 10:30a   45.4   46.2   45.4    76   38.3  14.0     N   2.33  24.0   NNE   38.3   45.0   37.9   40.2  30.273  0.00  0.00   149     2.14    250     0.0  0.00   0.0   0.136   0.000   68.5    41   43.9   66.2   7.95  .0753    0.000   213    5    100.0   10 
 2/24/18 10:40a   45.6   45.6   45.4    78   39.1  11.0     N   1.83  17.0   NNE   39.7   45.3   39.4   41.9  30.279  0.00  0.00   151     2.16    176     0.0  0.00   0.0   0.135   0.000   68.4    41   43.8   66.1   7.95  .0753    0.000   214    5    100.0   10 
 2/24/18 10:50a   46.1   46.1   45.6    77   39.3  12.0     N   2.00  18.0     N   39.8   45.8   39.5   44.3  30.281  0.00  0.00   246     3.53    570     0.0  0.00   0.0   0.131   0.000   68.4    41   43.8   66.1   7.95  .0753    0.000   209    5    100.0   10 
 2/24/18 11:00a   46.5   46.5   46.1    77   39.7   9.0   NNE   1.50  15.0   NNW   41.8   46.2   41.5   47.5  30.284  0.00  0.00   282     4.04    392     0.0  0.00   0.0   0.128   0.000   68.4    41   43.8   66.1   7.95  .0753    0.006   210    5    100.0   10 
 2/24/18 11:10a   44.8   46.6   44.8    78   38.4  15.0     N   2.50  24.0   NNW   37.3   44.5   37.0   38.1  30.294  0.00  0.00   108     1.55    239     0.0  0.00   0.0   0.140   0.000   68.4    41   43.8   66.1   7.95  .0754    0.000   211    5    100.0   10 
 2/24/18 11:20a   44.8   44.8   44.7    80   39.0  15.0     N   2.50  25.0   NNW   37.3   44.6   37.1   38.2  30.298  0.00  0.00   108     1.55    123     0.0  0.00   0.0   0.140   0.000   68.4    41   43.8   66.1   7.95  .0754    0.000   210    5    100.0   10 
 2/24/18 11:30a   44.7   44.7   44.6    79   38.6   9.0     N   1.50  15.0     N   39.6   44.5   39.4   42.2  30.296  0.00  0.00   163     2.34    174     0.0  0.00   0.0   0.141   0.000   68.4    41   43.8   66.1   7.95  .0754    0.000   212    5    100.0   10 
 2/24/18 11:40a   45.6   45.6   44.7    78   39.1   9.0     N   1.50  13.0     N   40.7   45.3   40.4   47.0  30.301  0.00  0.00   312     4.47    594     0.0  0.00   0.0   0.135   0.000   68.4    41   43.8   66.1   7.95  .0754    0.000   211    5    100.0   10 
 2/24/18 11:50a   45.3   45.7   45.3    79   39.2  12.0     N   2.00  21.0   NNW   38.9   45.1   38.7   43.1  30.312  0.00  0.00   236     3.38    329     0.0  0.00   0.0   0.137   0.000   68.5    41   43.9   66.2   7.95  .0754    0.000   213    5    100.0   10 
 2/24/18 12:00p   44.2   45.3   44.2    80   38.4  14.0    NW   2.33  23.0    NW   36.9   44.0   36.7   40.5  30.313  0.00  0.00   225     3.23    297     0.0  0.00   0.0   0.144   0.000   68.5    41   43.9   66.2   7.95  .0754    0.005   211    5    100.0   10 
 2/24/18 12:10p   43.7   44.3   43.7    80   37.9  16.0   WNW   2.67  22.0   WNW   35.7   43.5   35.5   36.5  30.311  0.00  0.00   108     1.55    134     0.0  0.00   0.0   0.148   0.000   68.5    41   43.9   66.2   7.95  .0754    0.000   214    5    100.0   10 
 2/24/18 12:20p   43.8   43.9   43.6    81   38.3  13.0     W   2.17  18.0     W   36.8   43.6   36.6   39.5  30.314  0.00  0.00   179     2.57    193     0.0  0.00   0.0   0.147   0.000   68.5    41   43.9   66.2   7.95  .0754    0.000   209    5    100.0   10 
 2/24/18 12:30p   44.3   44.3   43.8    81   38.8   9.0   WNW   1.50  13.0     W   39.2   44.1   39.0   43.6  30.314  0.00  0.00   226     3.24    264     0.0  0.00   0.0   0.144   0.000   68.5    41   43.9   66.2   7.95  .0754    0.000   210    5    100.0   10 
 2/24/18 12:40p   45.1   45.1   44.3    81   39.6   8.0   WNW   1.33  12.0     W   40.7   44.9   40.5   45.0  30.314  0.00  0.00   215     3.08    269     0.0  0.00   0.0   0.138   0.000   68.5    41   43.9   66.2   7.95  .0754    0.000   214    5    100.0   10 
 2/24/18 12:50p   45.3   45.4   45.2    80   39.5   8.0   WNW   1.33  12.0   WNW   41.0   45.1   40.8   46.7  30.314  0.00  0.00   267     3.83    529     0.0  0.00   0.0   0.137   0.000   68.5    41   43.9   66.2   7.95  .0754    0.000   211    5    100.0   10 
 2/24/18  1:00p   45.9   45.9   45.2    81   40.4   7.0     W   1.17  11.0     W   42.3   45.7   42.1   57.0  30.313  0.00  0.00   639     9.16    680     0.0  0.00   0.0   0.133   0.000   68.6    41   43.9   66.3   7.95  .0754    0.006   212    5    100.0   10 
 2/24/18  1:10p   46.1   46.1   45.8    81   40.6   6.0     W   1.00   9.0     W   43.0   45.9   42.8   53.3  30.311  0.00  0.00   471     6.75    689     0.0  0.00   0.0   0.131   0.000   68.6    41   43.9   66.3   7.95  .0754    0.000   213    5    100.0   10 
Email: AdamSPAM@StormwatchersRetreat.com (To send me email remove the word 'SPAM' from my email address.)